createdAt,value
2023-07-24T00:02:11.941Z,100222.75
2023-07-24T00:04:39.657Z,100229.00
2023-07-24T00:07:07.875Z,100227.13
2023-07-24T00:09:35.585Z,100228.41
2023-07-24T00:12:03.348Z,100230.41
2023-07-24T00:14:32.270Z,100226.69
2023-07-24T00:17:01.460Z,100219.59
2023-07-24T00:19:29.175Z,100224.56
2023-07-24T00:21:56.876Z,100222.31
2023-07-24T00:24:24.696Z,100224.72
2023-07-24T00:26:52.445Z,100217.84
2023-07-24T00:29:20.227Z,100203.09
2023-07-24T00:31:47.969Z,100200.31
2023-07-24T00:34:17.080Z,100202.59
2023-07-24T00:36:44.864Z,100208.41
2023-07-24T00:39:13.016Z,100213.97
2023-07-24T00:41:40.746Z,100199.25
2023-07-24T00:44:08.617Z,100210.38
2023-07-24T00:46:37.532Z,100199.38
2023-07-24T00:49:06.938Z,100205.94
2023-07-24T00:51:36.869Z,100212.19
2023-07-24T00:54:05.637Z,100204.00
2023-07-24T00:56:34.299Z,100204.69
2023-07-24T00:59:02.887Z,100195.38
2023-07-24T01:01:31.029Z,100195.34
2023-07-24T01:03:59.488Z,100185.50
2023-07-24T01:06:27.532Z,100190.56
2023-07-24T01:08:57.075Z,100193.28
2023-07-24T01:11:29.797Z,100186.41
2023-07-24T01:14:01.502Z,100183.16
2023-07-24T01:16:38.266Z,100189.94
2023-07-24T01:19:11.607Z,100191.50
2023-07-24T01:21:54.036Z,100181.47
2023-07-24T01:24:32.689Z,100186.66
2023-07-24T01:27:01.853Z,100186.78
2023-07-24T01:29:29.621Z,100181.56
2023-07-24T01:31:57.595Z,100182.25
2023-07-24T01:34:25.352Z,100188.53
2023-07-24T01:36:53.233Z,100179.09
2023-07-24T01:39:22.353Z,100186.31
2023-07-24T01:41:50.136Z,100192.44
2023-07-24T01:44:20.172Z,100182.66
2023-07-24T01:46:48.040Z,100180.25
2023-07-24T01:49:15.898Z,100179.84
2023-07-24T01:51:43.789Z,100172.31
2023-07-24T01:54:11.534Z,100176.28
2023-07-24T01:56:40.652Z,100179.03
2023-07-24T01:59:08.462Z,100169.13
2023-07-24T02:01:37.700Z,100162.09
2023-07-24T02:04:05.796Z,100172.66
2023-07-24T02:06:33.535Z,100178.03
2023-07-24T02:09:01.263Z,100182.44
2023-07-24T02:11:29.042Z,100183.72
2023-07-24T02:13:56.869Z,100184.41
2023-07-24T02:16:24.697Z,100174.41
2023-07-24T02:18:53.868Z,100183.94
2023-07-24T02:21:21.586Z,100180.34
2023-07-24T02:23:49.350Z,100172.63
2023-07-24T02:26:17.092Z,100174.44
2023-07-24T02:28:44.794Z,100173.03
2023-07-24T02:31:12.760Z,100174.63
2023-07-24T02:33:40.559Z,100168.56
2023-07-24T02:36:10.207Z,100176.84
2023-07-24T02:38:38.115Z,100173.81
2023-07-24T02:41:05.870Z,100169.69
2023-07-24T02:43:33.671Z,100174.28
2023-07-24T02:46:03.559Z,100169.44
2023-07-24T02:48:31.495Z,100179.38
2023-07-24T02:50:59.263Z,100174.50
2023-07-24T02:53:28.477Z,100175.38
2023-07-24T02:55:56.247Z,100174.25
2023-07-24T02:58:23.979Z,100172.66
2023-07-24T03:00:51.859Z,100171.19
2023-07-24T03:03:19.730Z,100170.06
2023-07-24T03:05:47.556Z,100177.50
2023-07-24T03:08:15.319Z,100177.44
2023-07-24T03:10:44.747Z,100173.75
2023-07-24T03:13:12.527Z,100169.34
2023-07-24T03:15:40.312Z,100163.38
2023-07-24T03:18:08.155Z,100166.31
2023-07-24T03:20:35.941Z,100164.94
2023-07-24T03:23:03.680Z,100173.03
2023-07-24T03:25:32.727Z,100166.63
2023-07-24T03:28:01.846Z,100169.91
2023-07-24T03:30:29.559Z,100166.06
2023-07-24T03:32:57.409Z,100163.50
2023-07-24T03:35:25.217Z,100165.16
2023-07-24T03:37:52.992Z,100166.63
2023-07-24T03:40:20.790Z,100159.09
2023-07-24T03:42:48.488Z,100147.50
2023-07-24T03:45:17.605Z,100144.50
2023-07-24T03:47:45.641Z,100155.34
2023-07-24T03:50:13.503Z,100157.84
2023-07-24T03:52:41.270Z,100149.00
2023-07-24T03:55:10.334Z,100148.00
2023-07-24T03:57:38.119Z,100143.84
2023-07-24T04:00:06.902Z,100147.84
2023-07-24T04:02:36.047Z,100143.50
2023-07-24T04:05:03.868Z,100150.19
2023-07-24T04:07:31.602Z,100152.69
2023-07-24T04:09:59.580Z,100151.13
2023-07-24T04:12:27.367Z,100155.81
2023-07-24T04:14:55.133Z,100160.66
2023-07-24T04:17:23.128Z,100158.81
2023-07-24T04:19:52.261Z,100153.72
2023-07-24T04:22:19.990Z,100157.75
2023-07-24T04:24:47.814Z,100153.03
2023-07-24T04:27:15.941Z,100151.16
2023-07-24T04:29:43.733Z,100154.69
2023-07-24T04:32:11.471Z,100155.28
2023-07-24T04:34:39.394Z,100157.56
2023-07-24T04:37:08.489Z,100159.59
2023-07-24T04:39:36.254Z,100157.31
2023-07-24T04:42:04.160Z,100163.00
2023-07-24T04:44:33.017Z,100165.59
2023-07-24T04:47:00.871Z,100153.66
2023-07-24T04:49:30.830Z,100155.91
2023-07-24T04:51:58.693Z,100151.63
2023-07-24T04:54:27.820Z,100163.25
2023-07-24T04:56:55.520Z,100154.44
2023-07-24T04:59:23.334Z,100161.84
2023-07-24T05:01:51.065Z,100161.47
2023-07-24T05:04:18.943Z,100152.31
2023-07-24T05:06:46.694Z,100160.19
2023-07-24T05:09:15.489Z,100163.84
2023-07-24T05:11:45.809Z,100156.69
2023-07-24T05:14:13.590Z,100153.25
2023-07-24T05:16:41.381Z,100156.06
2023-07-24T05:19:09.195Z,100148.44
2023-07-24T05:21:36.947Z,100149.84
2023-07-24T05:24:05.010Z,100152.34
2023-07-24T05:26:33.107Z,100156.75
2023-07-24T05:29:02.487Z,100158.03
2023-07-24T05:31:30.220Z,100159.69
2023-07-24T05:33:58.065Z,100155.25
2023-07-24T05:36:25.853Z,100151.25
2023-07-24T05:38:53.975Z,100156.88
2023-07-24T05:41:21.709Z,100157.59
2023-07-24T05:43:49.481Z,100156.88
2023-07-24T05:46:18.623Z,100160.53
2023-07-24T05:48:46.415Z,100160.41
2023-07-24T05:51:14.146Z,100161.03
2023-07-24T05:53:41.975Z,100173.63
2023-07-24T05:56:09.831Z,100164.19
2023-07-24T05:58:37.625Z,100159.97
2023-07-24T06:01:05.720Z,100160.19
2023-07-24T06:03:34.969Z,100160.63
2023-07-24T06:06:02.738Z,100162.22
2023-07-24T06:08:30.780Z,100164.88
2023-07-24T06:10:58.570Z,100161.00
2023-07-24T06:13:26.410Z,100163.31
2023-07-24T06:15:54.851Z,100158.22
2023-07-24T06:18:22.593Z,100149.41
2023-07-24T06:20:54.840Z,100160.78
2023-07-24T06:23:22.615Z,100156.44
2023-07-24T06:25:50.327Z,100151.31
2023-07-24T06:28:18.083Z,100156.78
2023-07-24T06:30:45.866Z,100161.56
2023-07-24T06:33:13.674Z,100155.50
2023-07-24T06:35:41.444Z,100155.88
2023-07-24T06:38:10.540Z,100154.25
2023-07-24T06:40:38.301Z,100147.19
2023-07-24T06:43:06.061Z,100147.06
2023-07-24T06:45:33.907Z,100150.69
2023-07-24T06:48:01.702Z,100147.72
2023-07-24T06:50:29.517Z,100151.31
2023-07-24T06:52:57.348Z,100156.44
2023-07-24T06:55:26.485Z,100149.16
2023-07-24T06:57:54.245Z,100159.13
2023-07-24T07:00:22.074Z,100158.09
2023-07-24T07:02:49.846Z,100154.69
2023-07-24T07:05:17.756Z,100153.59
2023-07-24T07:07:45.739Z,100149.91
2023-07-24T07:10:13.500Z,100143.91
2023-07-24T07:12:42.598Z,100158.94
2023-07-24T07:15:11.094Z,100161.09
2023-07-24T07:17:38.826Z,100154.19
2023-07-24T07:20:08.358Z,100158.19
2023-07-24T07:22:36.691Z,100162.59
2023-07-24T07:25:04.743Z,100153.56
2023-07-24T07:27:32.557Z,100154.09
2023-07-24T07:30:01.708Z,100149.94
2023-07-24T07:32:29.528Z,100149.84
2023-07-24T07:34:57.319Z,100143.75
2023-07-24T07:37:25.033Z,100156.66
2023-07-24T07:39:52.779Z,100150.81
2023-07-24T07:42:20.602Z,100155.59
2023-07-24T07:44:48.484Z,100153.81
2023-07-24T07:47:17.594Z,100156.81
2023-07-24T07:49:45.341Z,100157.88
2023-07-24T07:52:13.799Z,100156.78
2023-07-24T07:54:41.620Z,100158.50
2023-07-24T07:57:09.363Z,100162.47
2023-07-24T07:59:37.238Z,100166.69
2023-07-24T08:02:05.437Z,100152.41
2023-07-24T08:04:34.573Z,100158.63
2023-07-24T08:07:02.434Z,100164.50
2023-07-24T08:09:30.481Z,100166.38
2023-07-24T08:11:58.282Z,100159.72
2023-07-24T08:14:26.087Z,100169.56
2023-07-24T08:16:54.417Z,100164.91
2023-07-24T08:19:22.402Z,100157.38
2023-07-24T08:21:51.519Z,100159.06
2023-07-24T08:24:19.292Z,100157.44
2023-07-24T08:26:47.055Z,100161.03
2023-07-24T08:29:14.972Z,100169.56
2023-07-24T08:31:42.725Z,100169.38
2023-07-24T08:34:10.550Z,100165.00
2023-07-24T08:36:38.809Z,100166.66
2023-07-24T08:39:07.904Z,100166.88
2023-07-24T08:41:36.387Z,100151.81
2023-07-24T08:44:04.570Z,100157.75
2023-07-24T08:46:32.651Z,100157.22
2023-07-24T08:49:00.751Z,100159.16
2023-07-24T08:51:29.104Z,100158.41
2023-07-24T08:53:58.135Z,100157.81
2023-07-24T08:56:27.335Z,100153.97
2023-07-24T08:58:55.212Z,100155.03
2023-07-24T09:01:22.953Z,100159.19
2023-07-24T09:03:53.156Z,100152.34
2023-07-24T09:06:21.122Z,100151.94
2023-07-24T09:08:48.876Z,100150.47
2023-07-24T09:11:17.148Z,100149.66
2023-07-24T09:13:46.585Z,100142.19
2023-07-24T09:16:23.514Z,100133.16
2023-07-24T09:18:59.873Z,100140.00
2023-07-24T09:21:38.101Z,100131.25
2023-07-24T09:24:13.778Z,100126.88
2023-07-24T09:26:51.470Z,100137.78
2023-07-24T09:29:21.771Z,100139.59
2023-07-24T09:31:49.955Z,100145.03
2023-07-24T09:34:18.945Z,100140.28
2023-07-24T09:36:47.382Z,100129.31
2023-07-24T09:39:15.100Z,100142.56
2023-07-24T09:41:42.936Z,100140.88
2023-07-24T09:44:14.734Z,100140.13
2023-07-24T09:47:00.954Z,100138.06
2023-07-24T09:49:31.250Z,100147.78
2023-07-24T09:52:04.570Z,100151.06
2023-07-24T09:54:42.029Z,100146.13
2023-07-24T09:57:21.346Z,100158.22
2023-07-24T09:59:51.752Z,100154.25
2023-07-24T10:02:21.346Z,100149.69
2023-07-24T10:04:49.868Z,100153.28
2023-07-24T10:07:18.079Z,100147.84
2023-07-24T10:09:46.010Z,100152.44
2023-07-24T10:12:14.008Z,100166.06
2023-07-24T10:14:42.496Z,100159.41
2023-07-24T10:17:10.487Z,100172.38
2023-07-24T10:19:43.038Z,100166.69
2023-07-24T10:22:11.872Z,100159.78
2023-07-24T10:24:43.083Z,100161.59
2023-07-24T10:27:11.058Z,100165.38
2023-07-24T10:29:38.874Z,100171.47
2023-07-24T10:32:18.499Z,100173.00
2023-07-24T10:34:47.753Z,100172.66
2023-07-24T10:37:15.464Z,100171.81
2023-07-24T10:39:43.621Z,100164.22
2023-07-24T10:42:12.393Z,100176.06
2023-07-24T10:44:41.666Z,100170.66
2023-07-24T10:47:09.409Z,100174.34
2023-07-24T10:49:37.222Z,100170.78
2023-07-24T10:52:07.078Z,100169.66
2023-07-24T10:54:34.934Z,100171.16
2023-07-24T10:57:02.948Z,100162.66
2023-07-24T10:59:40.882Z,100168.63
2023-07-24T11:02:11.282Z,100182.38
2023-07-24T11:04:39.184Z,100182.22
2023-07-24T11:07:08.666Z,100183.72
2023-07-24T11:09:37.857Z,100176.56
2023-07-24T11:12:20.287Z,100183.31
2023-07-24T11:14:50.909Z,100168.97
2023-07-24T11:17:19.137Z,100176.56
2023-07-24T11:19:47.232Z,100177.97
2023-07-24T11:22:16.806Z,100171.84
2023-07-24T11:24:46.227Z,100170.78
2023-07-24T11:27:16.936Z,100173.22
2023-07-24T11:29:49.683Z,100172.31
2023-07-24T11:32:20.281Z,100171.13
2023-07-24T11:34:49.057Z,100166.28
2023-07-24T11:37:19.288Z,100172.25
2023-07-24T11:39:57.507Z,100167.53
2023-07-24T11:42:27.407Z,100171.31
2023-07-24T11:44:55.903Z,100159.09
2023-07-24T11:47:23.852Z,100159.78
2023-07-24T11:50:02.103Z,100160.84
2023-07-24T11:52:42.066Z,100167.66
2023-07-24T11:55:10.305Z,100171.34
2023-07-24T11:57:38.081Z,100173.53
2023-07-24T12:00:07.114Z,100162.94
2023-07-24T12:02:35.618Z,100169.84
2023-07-24T12:05:03.826Z,100175.69
2023-07-24T12:07:34.661Z,100174.75
2023-07-24T12:10:05.625Z,100174.09
2023-07-24T12:12:47.191Z,100178.28
2023-07-24T12:15:16.674Z,100170.91
2023-07-24T12:17:44.458Z,100168.91
2023-07-24T12:20:12.695Z,100167.19
2023-07-24T12:22:41.106Z,100164.88
2023-07-24T12:25:13.675Z,100156.75
2023-07-24T12:27:42.842Z,100159.53
2023-07-24T12:30:10.975Z,100150.38
2023-07-24T12:32:38.804Z,100150.91
2023-07-24T12:35:07.570Z,100141.31
2023-07-24T12:37:35.325Z,100148.97
2023-07-24T12:40:03.372Z,100140.47
2023-07-24T12:42:32.524Z,100137.44
2023-07-24T12:45:00.414Z,100132.19
2023-07-24T12:47:28.345Z,100138.50
2023-07-24T12:49:57.315Z,100125.91
2023-07-24T12:52:25.298Z,100132.56
2023-07-24T12:55:01.631Z,100122.81
2023-07-24T12:57:30.295Z,100125.00
2023-07-24T12:59:59.519Z,100117.66
2023-07-24T13:02:27.297Z,100128.84
2023-07-24T13:04:55.102Z,100128.66
2023-07-24T13:07:22.917Z,100133.97
2023-07-24T13:09:50.674Z,100133.06
2023-07-24T13:12:19.593Z,100137.63
2023-07-24T13:14:47.289Z,100131.56
2023-07-24T13:17:16.500Z,100130.59
2023-07-24T13:19:44.390Z,100127.63
2023-07-24T13:22:12.132Z,100120.69
2023-07-24T13:24:39.881Z,100122.13
2023-07-24T13:27:08.365Z,100125.06
2023-07-24T13:29:36.162Z,100128.03
2023-07-24T13:32:03.932Z,100129.88
2023-07-24T13:34:33.035Z,100116.44
2023-07-24T13:37:00.748Z,100120.97
2023-07-24T13:39:29.369Z,100110.16
2023-07-24T13:41:57.153Z,100108.56
2023-07-24T13:44:24.928Z,100110.09
2023-07-24T13:46:52.716Z,100105.78
2023-07-24T13:49:20.531Z,100103.38
2023-07-24T13:51:49.630Z,100093.34
2023-07-24T13:54:17.373Z,100094.97
2023-07-24T13:56:45.144Z,100097.41
2023-07-24T13:59:12.871Z,100089.03
2023-07-24T14:01:40.607Z,100102.25
2023-07-24T14:04:08.558Z,100105.06
2023-07-24T14:06:36.480Z,100101.25
2023-07-24T14:09:05.647Z,100100.28
2023-07-24T14:11:33.743Z,100102.53
2023-07-24T14:14:01.744Z,100105.56
2023-07-24T14:16:29.478Z,100107.00
2023-07-24T14:18:57.261Z,100102.09
2023-07-24T14:21:24.975Z,100097.38
2023-07-24T14:23:52.709Z,100102.56
2023-07-24T14:26:21.885Z,100101.25
2023-07-24T14:28:49.642Z,100093.50
2023-07-24T14:31:17.473Z,100099.72
2023-07-24T14:33:45.311Z,100087.25
2023-07-24T14:36:13.079Z,100096.94
2023-07-24T14:38:40.825Z,100099.13
2023-07-24T14:41:08.616Z,100095.41
2023-07-24T14:43:37.719Z,100114.59
2023-07-24T14:46:05.615Z,100104.34
2023-07-24T14:48:34.526Z,100100.88
2023-07-24T14:51:02.426Z,100099.50
2023-07-24T14:53:30.214Z,100105.25
2023-07-24T14:55:58.026Z,100102.66
2023-07-24T14:58:25.791Z,100107.59
2023-07-24T15:00:54.997Z,100108.47
2023-07-24T15:03:23.234Z,100103.53
2023-07-24T15:05:51.132Z,100102.69
2023-07-24T15:08:18.869Z,100093.44
2023-07-24T15:10:46.631Z,100103.19
2023-07-24T15:13:15.502Z,100098.03
2023-07-24T15:15:43.413Z,100093.13
2023-07-24T15:18:12.608Z,100094.72
2023-07-24T15:20:40.358Z,100093.94
2023-07-24T15:23:10.013Z,100081.47
2023-07-24T15:25:38.083Z,100092.75
2023-07-24T15:28:06.203Z,100096.53
2023-07-24T15:30:33.990Z,100102.97
2023-07-24T15:33:01.828Z,100120.16
2023-07-24T15:35:31.020Z,100120.06
2023-07-24T15:37:58.742Z,100119.13
2023-07-24T15:40:26.484Z,100117.06
2023-07-24T15:42:54.208Z,100126.75
2023-07-24T15:45:21.973Z,100151.31
2023-07-24T15:47:49.749Z,100136.88
2023-07-24T15:50:17.535Z,100145.97
2023-07-24T15:52:46.623Z,100139.69
2023-07-24T15:55:14.386Z,100152.16
2023-07-24T15:57:42.133Z,100155.69
2023-07-24T16:00:11.167Z,100154.03
2023-07-24T16:02:39.101Z,100137.81
2023-07-24T16:05:07.673Z,100131.16
2023-07-24T16:07:35.984Z,100144.84
2023-07-24T16:10:05.835Z,100146.91
2023-07-24T16:12:33.609Z,100151.78
2023-07-24T16:15:01.665Z,100153.34
2023-07-24T16:17:33.709Z,100154.38
2023-07-24T16:20:01.955Z,100149.91
2023-07-24T16:22:30.353Z,100157.19
2023-07-24T16:24:58.092Z,100149.88
2023-07-24T16:27:27.417Z,100163.25
2023-07-24T16:29:55.115Z,100170.75
2023-07-24T16:32:28.306Z,100182.00
2023-07-24T16:34:56.474Z,100170.13
2023-07-24T16:37:25.551Z,100169.47
2023-07-24T16:39:53.295Z,100157.28
2023-07-24T16:42:21.055Z,100162.47
2023-07-24T16:44:58.881Z,100157.78
2023-07-24T16:47:27.137Z,100160.91
2023-07-24T16:49:54.977Z,100164.38
2023-07-24T16:52:23.130Z,100163.28
2023-07-24T16:54:51.709Z,100167.84
2023-07-24T16:57:19.543Z,100173.97
2023-07-24T16:59:47.312Z,100174.66
2023-07-24T17:02:16.470Z,100179.84
2023-07-24T17:04:44.214Z,100173.72
2023-07-24T17:07:12.018Z,100181.00
2023-07-24T17:09:39.749Z,100183.22
2023-07-24T17:12:08.740Z,100186.81
2023-07-24T17:14:36.490Z,100186.53
2023-07-24T17:17:04.498Z,100185.97
2023-07-24T17:19:33.612Z,100183.16
2023-07-24T17:22:01.393Z,100186.56
2023-07-24T17:24:29.184Z,100186.50
2023-07-24T17:26:56.978Z,100187.13
2023-07-24T17:29:24.731Z,100195.31
2023-07-24T17:31:52.501Z,100184.94
2023-07-24T17:34:20.209Z,100191.47
2023-07-24T17:36:49.361Z,100197.25
2023-07-24T17:39:17.100Z,100198.03
2023-07-24T17:41:44.875Z,100200.44
2023-07-24T17:44:12.631Z,100201.56
2023-07-24T17:46:40.408Z,100201.47
2023-07-24T17:49:08.278Z,100201.59
2023-07-24T17:51:36.171Z,100208.16
2023-07-24T17:54:05.770Z,100207.34
2023-07-24T17:56:33.488Z,100211.44
2023-07-24T17:59:01.297Z,100217.19
2023-07-24T18:01:29.303Z,100217.28
2023-07-24T18:03:57.408Z,100211.31
2023-07-24T18:06:25.183Z,100209.66
2023-07-24T18:08:52.934Z,100207.94
2023-07-24T18:11:22.560Z,100213.22
2023-07-24T18:13:50.320Z,100203.00
2023-07-24T18:16:18.163Z,100206.28
2023-07-24T18:18:45.972Z,100210.16
2023-07-24T18:21:13.715Z,100199.91
2023-07-24T18:23:41.420Z,100209.97
2023-07-24T18:26:10.611Z,100206.75
2023-07-24T18:28:39.763Z,100203.50
2023-07-24T18:31:08.739Z,100204.56
2023-07-24T18:33:37.074Z,100213.47
2023-07-24T18:36:05.232Z,100223.97
2023-07-24T18:38:33.008Z,100224.53
2023-07-24T18:41:01.151Z,100222.47
2023-07-24T18:43:29.253Z,100221.84
2023-07-24T18:45:58.853Z,100225.34
2023-07-24T18:48:27.296Z,100226.44
2023-07-24T18:50:55.236Z,100228.41
2023-07-24T18:53:22.996Z,100225.34
2023-07-24T18:55:50.784Z,100225.94
2023-07-24T18:58:18.575Z,100233.44
2023-07-24T19:00:46.341Z,100233.59
2023-07-24T19:03:15.496Z,100222.28
2023-07-24T19:05:43.274Z,100232.19
2023-07-24T19:08:11.135Z,100231.66
2023-07-24T19:10:38.952Z,100230.75
2023-07-24T19:13:06.850Z,100226.41
2023-07-24T19:15:34.591Z,100238.78
2023-07-24T19:18:02.340Z,100236.47
2023-07-24T19:20:33.443Z,100225.81
2023-07-24T19:23:03.673Z,100226.59
2023-07-24T19:25:32.474Z,100228.09
2023-07-24T19:28:00.266Z,100234.91
2023-07-24T19:30:28.089Z,100235.91
2023-07-24T19:32:55.949Z,100240.56
2023-07-24T19:35:23.755Z,100253.13
2023-07-24T19:37:52.839Z,100255.91
2023-07-24T19:40:20.584Z,100255.56
2023-07-24T19:42:48.351Z,100272.41
2023-07-24T19:45:16.220Z,100261.25
2023-07-24T19:47:44.099Z,100259.16
2023-07-24T19:50:11.897Z,100256.03
2023-07-24T19:52:39.665Z,100248.16
2023-07-24T19:55:12.252Z,100253.34
2023-07-24T19:57:40.242Z,100253.63
2023-07-24T20:00:09.253Z,100247.91
2023-07-24T20:02:37.088Z,100255.50
2023-07-24T20:05:05.138Z,100254.91
2023-07-24T20:07:32.901Z,100266.88
2023-07-24T20:10:01.179Z,100271.31
2023-07-24T20:12:30.391Z,100276.25
2023-07-24T20:14:58.104Z,100285.13
2023-07-24T20:17:25.902Z,100287.94
2023-07-24T20:19:53.666Z,100285.94
2023-07-24T20:22:21.498Z,100284.88
2023-07-24T20:24:49.282Z,100292.88
2023-07-24T20:27:17.018Z,100289.03
2023-07-24T20:29:46.115Z,100297.31
2023-07-24T20:32:15.021Z,100293.66
2023-07-24T20:34:42.792Z,100300.38
2023-07-24T20:37:10.558Z,100293.81
2023-07-24T20:39:38.299Z,100302.66
2023-07-24T20:42:06.958Z,100296.34
2023-07-24T20:44:34.700Z,100306.78
2023-07-24T20:47:03.936Z,100308.66
2023-07-24T20:49:31.686Z,100307.91
2023-07-24T20:51:59.443Z,100309.63
2023-07-24T20:54:27.223Z,100316.72
2023-07-24T20:56:54.983Z,100310.47
2023-07-24T20:59:22.784Z,100313.50
2023-07-24T21:01:50.529Z,100307.72
2023-07-24T21:04:19.750Z,100308.75
2023-07-24T21:06:47.622Z,100309.31
2023-07-24T21:09:15.410Z,100317.00
2023-07-24T21:11:43.207Z,100325.81
2023-07-24T21:14:11.017Z,100326.38
2023-07-24T21:16:39.544Z,100323.25
2023-07-24T21:19:07.315Z,100325.13
2023-07-24T21:21:36.414Z,100316.41
2023-07-24T21:24:04.423Z,100319.69
2023-07-24T21:26:32.211Z,100321.56
2023-07-24T21:28:59.984Z,100323.00
2023-07-24T21:31:27.734Z,100326.13
2023-07-24T21:33:55.715Z,100323.97
2023-07-24T21:36:23.453Z,100323.41
2023-07-24T21:38:53.139Z,100334.34
2023-07-24T21:41:20.833Z,100340.28
2023-07-24T21:43:48.542Z,100336.59
2023-07-24T21:46:16.343Z,100336.59
2023-07-24T21:48:44.119Z,100339.47
2023-07-24T21:51:11.865Z,100332.75
2023-07-24T21:53:39.652Z,100322.81
2023-07-24T21:56:08.957Z,100317.56
2023-07-24T21:58:36.739Z,100321.97
2023-07-24T22:01:04.516Z,100326.66
2023-07-24T22:03:32.387Z,100328.53
2023-07-24T22:06:00.220Z,100326.00
2023-07-24T22:08:28.165Z,100330.34
2023-07-24T22:10:55.928Z,100327.53
2023-07-24T22:13:25.052Z,100334.34
2023-07-24T22:15:52.778Z,100335.91
2023-07-24T22:18:20.536Z,100336.75
2023-07-24T22:20:48.319Z,100331.56
2023-07-24T22:23:16.082Z,100334.56
2023-07-24T22:25:44.653Z,100336.81
2023-07-24T22:28:12.431Z,100337.03
2023-07-24T22:30:41.539Z,100334.19
2023-07-24T22:33:09.370Z,100333.84
2023-07-24T22:35:37.153Z,100334.94
2023-07-24T22:38:05.034Z,100337.06
2023-07-24T22:40:33.420Z,100329.09
2023-07-24T22:43:01.156Z,100333.19
2023-07-24T22:45:29.252Z,100332.56
2023-07-24T22:47:58.609Z,100338.78
2023-07-24T22:50:26.505Z,100335.84
2023-07-24T22:52:54.252Z,100336.78
2023-07-24T22:55:21.979Z,100337.22
2023-07-24T22:57:49.757Z,100341.16
2023-07-24T23:00:17.737Z,100339.94
2023-07-24T23:02:45.553Z,100336.13
2023-07-24T23:05:15.124Z,100343.19
2023-07-24T23:07:42.834Z,100342.72
2023-07-24T23:10:11.552Z,100342.38
2023-07-24T23:12:39.348Z,100350.53
2023-07-24T23:15:07.773Z,100349.09
2023-07-24T23:17:35.530Z,100354.31
2023-07-24T23:20:03.406Z,100359.72
2023-07-24T23:22:32.473Z,100351.53
2023-07-24T23:25:00.234Z,100352.81
2023-07-24T23:27:27.971Z,100347.47
2023-07-24T23:29:55.674Z,100344.94
2023-07-24T23:32:23.507Z,100345.06
2023-07-24T23:34:51.299Z,100344.81
2023-07-24T23:37:19.082Z,100351.78
2023-07-24T23:39:48.227Z,100355.34
2023-07-24T23:42:16.054Z,100353.22
2023-07-24T23:44:43.787Z,100355.75
2023-07-24T23:47:12.427Z,100353.94
2023-07-24T23:49:40.578Z,100356.78
2023-07-24T23:52:09.559Z,100340.13
2023-07-24T23:54:37.303Z,100343.31
2023-07-24T23:57:06.866Z,100352.44
2023-07-24T23:59:34.599Z,100356.19
